Time;durP1;ratioP1;P1;durP2;ratioP2;P2;SDS_P1;SDS_P2;PMS_P1;PMS_P2;Temp;Humidity;BMP_temperature;BMP_pressure;BME280_temperature;BME280_humidity;BME280_pressure;Samples;Min_cycle;Max_cycle;Signal;HPM_P1;HPM_P2
2022/07/02 00:00:50;;;;;;;2.08;1.02;;;;;;;28.63;29.75;96890.16;5094853;28;20110;-26
2022/07/02 00:03:20;;;;;;;3.83;1.38;;;;;;;28.61;29.92;96890.69;5094535;28;20113;-26
2022/07/02 00:05:53;;;;;;;5.15;1.33;;;;;;;28.60;29.70;96889.94;5094420;28;20182;-26
2022/07/02 00:08:19;;;;;;;5.88;1.38;;;;;;;28.55;29.87;96892.88;5094601;28;20020;-26
2022/07/02 00:10:46;;;;;;;2.75;1.30;;;;;;;28.53;30.00;96895.44;5093462;28;20562;-26
2022/07/02 00:13:12;;;;;;;6.18;1.23;;;;;;;28.64;29.90;96886.84;5094571;28;20027;-26
2022/07/02 00:15:38;;;;;;;4.50;1.20;;;;;;;28.50;30.16;96888.88;5094045;28;20023;-26
2022/07/02 00:18:04;;;;;;;4.47;1.27;;;;;;;28.58;29.85;96881.34;5094788;28;20024;-26
2022/07/02 00:20:30;;;;;;;2.72;1.35;;;;;;;28.59;29.71;96885.66;5094428;28;20035;-28
2022/07/02 00:22:56;;;;;;;3.30;1.10;;;;;;;28.63;29.72;96884.59;5094357;28;20032;-26
2022/07/02 00:25:23;;;;;;;3.78;0.90;;;;;;;28.60;29.72;96880.81;5094158;28;20470;-26
2022/07/02 00:27:48;;;;;;;3.72;1.02;;;;;;;28.61;29.51;96876.75;5094172;28;20035;-26
2022/07/02 00:30:14;;;;;;;2.45;1.00;;;;;;;28.67;29.43;96873.88;5094000;28;20023;-26
2022/07/02 00:32:42;;;;;;;1.75;1.20;;;;;;;28.56;29.93;96880.41;5094174;28;20030;-26
2022/07/02 00:35:09;;;;;;;4.35;1.33;;;;;;;28.57;29.56;96873.53;5094213;28;20035;-25
2022/07/02 00:37:38;;;;;;;2.25;1.20;;;;;;;28.68;29.66;96878.16;5093976;28;20512;-26
2022/07/02 00:40:07;;;;;;;2.65;1.05;;;;;;;28.62;29.48;96881.03;5094180;28;20039;-26
2022/07/02 00:42:36;;;;;;;3.10;1.10;;;;;;;28.57;29.65;96881.91;5094063;28;20024;-26
2022/07/02 00:45:02;;;;;;;3.03;1.10;;;;;;;28.63;29.84;96879.00;5093912;28;20023;-26
2022/07/02 00:47:29;;;;;;;3.00;1.17;;;;;;;28.55;29.77;96884.50;5093860;28;20020;-26
2022/07/02 00:49:55;;;;;;;3.22;1.10;;;;;;;28.54;29.55;96883.75;5093806;28;20030;-26
2022/07/02 00:52:20;;;;;;;4.38;1.10;;;;;;;28.51;29.76;96890.38;5093809;28;20102;-26
2022/07/02 00:54:46;;;;;;;2.13;1.15;;;;;;;28.57;29.68;96888.22;5093900;28;20035;-26
2022/07/02 00:57:12;;;;;;;3.88;1.40;;;;;;;28.56;29.62;96886.00;5091748;28;20078;-26
2022/07/02 00:59:38;;;;;;;3.33;0.93;;;;;;;28.59;29.66;96891.25;5091499;28;20433;-26
2022/07/02 01:02:06;;;;;;;5.35;1.40;;;;;;;28.54;29.75;96885.78;5093659;28;20028;-26
2022/07/02 01:04:33;;;;;;;3.38;1.30;;;;;;;28.48;29.82;96890.69;5093586;28;20028;-26
2022/07/02 01:07:02;;;;;;;2.50;1.00;;;;;;;28.55;29.73;96884.50;5093418;28;20547;-27
2022/07/02 01:12:18;;;;;;;3.10;1.20;;;;;;;28.57;29.63;96884.69;5093608;28;20484;-26
2022/07/02 01:14:45;;;;;;;5.75;1.80;;;;;;;28.46;29.65;96891.22;5093526;28;20389;-26
2022/07/02 01:17:10;;;;;;;2.03;0.90;;;;;;;28.61;29.63;96887.91;5093486;28;20031;-26
2022/07/02 01:19:36;;;;;;;2.88;1.20;;;;;;;28.59;29.64;96882.13;5093455;28;20024;-26
2022/07/02 01:22:24;;;;;;;4.80;1.00;;;;;;;28.54;29.94;96885.78;5093580;28;20031;-26
2022/07/02 01:24:52;;;;;;;2.97;1.10;;;;;;;28.38;29.97;96884.78;5093309;28;20028;-26
2022/07/02 01:27:19;;;;;;;2.85;1.27;;;;;;;28.38;30.08;96881.25;5094325;28;20020;-26
2022/07/02 01:29:45;;;;;;;2.28;1.30;;;;;;;28.45;29.72;96884.16;5097608;28;20024;-26
2022/07/02 01:32:11;;;;;;;2.50;1.13;;;;;;;28.51;29.88;96890.38;5097423;28;20077;-26
2022/07/02 01:34:40;;;;;;;3.85;0.98;;;;;;;28.51;30.08;96889.63;5097644;28;20089;-26
2022/07/02 01:37:11;;;;;;;3.25;1.20;;;;;;;28.49;29.78;96881.03;5097575;28;20028;-26
2022/07/02 01:39:37;;;;;;;2.28;0.93;;;;;;;28.46;30.09;96882.09;5097359;28;20027;-26
2022/07/02 01:42:05;;;;;;;4.13;1.30;;;;;;;28.48;29.69;96876.75;5097343;28;20383;-26
2022/07/02 01:44:31;;;;;;;3.40;0.90;;;;;;;28.52;29.74;96877.19;5097397;28;20024;-26
2022/07/02 01:46:57;;;;;;;4.35;1.10;;;;;;;28.53;29.47;96871.06;5097111;28;20023;-26
2022/07/02 01:49:22;;;;;;;2.53;1.20;;;;;;;28.51;29.64;96875.69;5097295;28;20046;-26
2022/07/02 01:51:48;;;;;;;3.17;1.00;;;;;;;28.53;29.73;96873.88;5097484;28;20028;-26
2022/07/02 01:54:13;;;;;;;2.33;0.90;;;;;;;28.54;29.40;96872.59;5097185;28;20485;-26
2022/07/02 01:56:39;;;;;;;1.42;0.85;;;;;;;28.45;29.65;96870.19;5097108;28;20024;-26
2022/07/02 01:59:05;;;;;;;3.25;1.05;;;;;;;28.49;29.54;96873.44;5097211;28;20031;-26
2022/07/02 02:01:31;;;;;;;3.85;1.13;;;;;;;28.45;29.73;96875.03;5096942;28;20031;-26
2022/07/02 02:03:57;;;;;;;2.63;0.95;;;;;;;28.56;29.43;96878.34;5097231;28;20024;-26
2022/07/02 02:06:22;;;;;;;2.28;1.00;;;;;;;28.52;29.67;96875.16;5096824;28;20093;-26
2022/07/02 02:08:49;;;;;;;3.05;1.02;;;;;;;28.46;30.11;96884.91;5096627;28;20115;-26
2022/07/02 02:11:15;;;;;;;4.10;1.10;;;;;;;28.55;29.59;96876.13;5097146;28;20024;-26
2022/07/02 02:13:40;;;;;;;1.58;1.17;;;;;;;28.49;29.97;96878.25;5096970;28;20028;-26
2022/07/02 02:16:05;;;;;;;3.00;1.38;;;;;;;28.53;29.89;96873.13;5095745;28;20028;-26
2022/07/02 02:18:31;;;;;;;2.13;0.85;;;;;;;28.52;29.76;96874.41;5096685;28;20027;-26
2022/07/02 02:20:56;;;;;;;4.35;1.67;;;;;;;28.55;29.94;96876.13;5096637;28;20020;-25
2022/07/02 02:23:22;;;;;;;3.80;1.13;;;;;;;28.45;29.73;96875.03;5096612;28;20497;-27
2022/07/02 02:25:47;;;;;;;3.90;1.10;;;;;;;28.51;29.96;96881.25;5096559;28;20016;-26
2022/07/02 02:28:12;;;;;;;5.72;1.17;;;;;;;28.51;29.75;96879.22;5096538;28;20024;-26
2022/07/02 02:30:38;;;;;;;2.22;1.33;;;;;;;28.55;29.90;96881.69;5096364;28;20427;-26
2022/07/02 02:33:03;;;;;;;3.15;1.08;;;;;;;28.50;29.84;96877.72;5096399;28;20107;-26
2022/07/02 02:35:29;;;;;;;3.33;1.25;;;;;;;28.56;29.47;96880.41;5096180;28;20047;-26
2022/07/02 02:37:54;;;;;;;2.47;1.02;;;;;;;28.41;29.84;96885.78;5096393;28;20012;-26
2022/07/02 02:40:20;;;;;;;2.72;1.00;;;;;;;28.45;30.26;96883.41;5096460;28;20016;-25
2022/07/02 02:42:45;;;;;;;3.58;1.35;;;;;;;28.51;29.73;96890.38;5096434;28;20051;-26
2022/07/02 02:45:11;;;;;;;3.97;1.13;;;;;;;28.56;29.82;96886.00;5096345;28;20462;-26
2022/07/02 02:47:36;;;;;;;3.47;1.17;;;;;;;28.54;29.87;96885.78;5095989;28;20474;-26
2022/07/02 02:50:03;;;;;;;2.95;1.08;;;;;;;28.47;29.75;96891.97;5096082;28;20055;-26
2022/07/02 02:52:29;;;;;;;1.50;1.08;;;;;;;28.54;29.93;96894.91;5096045;28;20455;-28
2022/07/02 02:54:54;;;;;;;2.15;1.08;;;;;;;28.51;29.97;96898.00;5094855;28;20028;-26
2022/07/02 02:57:20;;;;;;;2.78;1.17;;;;;;;28.50;29.71;96902.84;5095920;28;20043;-25
2022/07/02 02:59:45;;;;;;;2.60;1.02;;;;;;;28.46;29.86;96896.06;5095899;28;20081;-26
2022/07/02 03:02:10;;;;;;;1.88;1.25;;;;;;;28.52;29.97;96902.28;5096015;28;20028;-26
2022/07/02 03:04:36;;;;;;;2.13;1.02;;;;;;;28.54;30.21;96899.72;5095756;28;20024;-25
2022/07/02 03:07:01;;;;;;;3.47;1.13;;;;;;;28.50;29.95;96907.66;5095679;28;20044;-26
2022/07/02 03:09:27;;;;;;;4.07;1.52;;;;;;;28.48;30.44;96901.84;5095758;28;20115;-27
2022/07/02 03:11:52;;;;;;;4.35;1.20;;;;;;;28.43;30.29;96903.47;5095572;28;20020;-26
2022/07/02 03:14:18;;;;;;;4.20;1.13;;;;;;;28.48;30.40;96899.81;5095797;28;20042;-26
2022/07/02 03:16:43;;;;;;;2.08;1.48;;;;;;;28.51;30.52;96901.53;5096074;28;20386;-26
2022/07/02 03:19:09;;;;;;;4.18;1.30;;;;;;;28.50;30.38;96899.28;5095395;28;20027;-26
2022/07/02 03:21:34;;;;;;;6.05;1.60;;;;;;;28.43;30.95;96889.53;5095449;28;20020;-26
2022/07/02 03:23:59;;;;;;;2.20;1.33;;;;;;;28.48;30.91;96899.06;5095473;28;20493;-26
2022/07/02 03:26:25;;;;;;;4.57;1.70;;;;;;;28.40;30.95;96895.41;5095406;28;20397;-26
2022/07/02 03:28:51;;;;;;;3.63;1.10;;;;;;;28.51;30.99;96900.78;5095555;28;20470;-27
2022/07/02 03:31:16;;;;;;;5.20;1.38;;;;;;;28.54;30.97;96892.09;5095288;28;20115;-26
2022/07/02 03:33:42;;;;;;;2.72;1.30;;;;;;;28.46;31.35;96893.25;5095210;28;20099;-26
2022/07/02 03:36:07;;;;;;;3.42;1.30;;;;;;;28.48;31.13;96894.25;5095431;28;20020;-26
2022/07/02 03:38:33;;;;;;;5.22;1.65;;;;;;;28.47;31.39;96901.09;5094982;28;20052;-27
2022/07/02 03:40:58;;;;;;;4.60;1.40;;;;;;;28.44;31.40;96895.84;5095175;28;20024;-26
2022/07/02 03:43:24;;;;;;;2.65;1.40;;;;;;;28.47;31.64;96894.78;5095166;28;20020;-26
2022/07/02 03:45:49;;;;;;;2.95;1.52;;;;;;;28.43;31.59;96892.31;5094891;28;20077;-26
2022/07/02 03:48:15;;;;;;;4.55;1.52;;;;;;;28.44;31.62;96901.41;5094984;28;20074;-26
2022/07/02 03:50:42;;;;;;;3.78;1.20;;;;;;;28.47;31.58;96900.34;5094243;28;20065;-26
2022/07/02 03:53:08;;;;;;;3.72;1.65;;;;;;;28.45;31.86;96909.25;5094825;28;20043;-26
2022/07/02 03:55:34;;;;;;;3.35;1.42;;;;;;;28.47;31.72;96905.94;5095044;28;20081;-26
2022/07/02 03:57:59;;;;;;;2.80;1.33;;;;;;;28.47;32.11;96906.69;5095009;28;20129;-26
2022/07/02 04:00:24;;;;;;;3.47;1.63;;;;;;;28.46;31.89;96910.75;5094751;28;20120;-26
2022/07/02 04:02:50;;;;;;;3.13;1.50;;;;;;;28.43;32.03;96911.84;5093346;28;20028;-26
2022/07/02 04:05:16;;;;;;;2.50;1.65;;;;;;;28.43;32.73;96908.31;5094476;28;20024;-26
2022/07/02 04:07:41;;;;;;;2.53;1.55;;;;;;;28.50;31.99;96916.03;5094641;28;20470;-26
2022/07/02 04:10:07;;;;;;;2.47;1.25;;;;;;;28.38;32.80;96912.69;5094694;28;20118;-26
2022/07/02 04:12:33;;;;;;;4.30;1.73;;;;;;;28.39;32.83;96919.78;5094456;28;20051;-25
2022/07/02 04:14:59;;;;;;;3.22;1.55;;;;;;;28.40;32.57;96910.13;5094425;28;20070;-26
2022/07/02 04:17:25;;;;;;;2.38;1.38;;;;;;;28.44;32.26;96909.78;5094235;28;20046;-26
2022/07/02 04:19:50;;;;;;;3.25;1.50;;;;;;;28.40;32.46;96912.16;5094298;28;20432;-26
2022/07/02 04:22:16;;;;;;;3.90;1.95;;;;;;;28.39;33.05;96910.66;5094603;28;20024;-26
2022/07/02 04:24:41;;;;;;;6.32;1.83;;;;;;;28.42;32.86;96917.97;5094433;28;20477;-26
2022/07/02 04:27:07;;;;;;;2.40;1.40;;;;;;;28.41;33.00;96916.47;5094157;28;20472;-26
2022/07/02 04:29:32;;;;;;;3.08;1.58;;;;;;;28.41;33.32;96919.25;5094317;28;20111;-26
2022/07/02 04:31:57;;;;;;;4.40;1.70;;;;;;;28.36;33.24;96912.47;5094187;28;20019;-26
2022/07/02 04:34:23;;;;;;;3.47;1.60;;;;;;;28.35;33.13;96913.00;5094156;28;20028;-26
2022/07/02 04:36:48;;;;;;;3.20;1.73;;;;;;;28.35;33.40;96905.38;5094004;28;20039;-26
2022/07/02 04:39:14;;;;;;;4.00;1.50;;;;;;;28.39;33.14;96905.06;5092752;28;20055;-26
2022/07/02 04:41:39;;;;;;;3.95;1.50;;;;;;;28.36;33.39;96917.28;5093978;28;20031;-26
2022/07/02 04:44:05;;;;;;;5.28;1.70;;;;;;;28.40;33.08;96912.16;5093952;28;20024;-26
2022/07/02 04:46:30;;;;;;;5.28;1.40;;;;;;;28.39;33.32;96913.44;5093891;28;20385;-26
2022/07/02 04:48:56;;;;;;;3.83;1.70;;;;;;;28.37;33.33;96913.97;5093624;28;20385;-26
2022/07/02 04:51:21;;;;;;;3.20;1.50;;;;;;;28.36;33.27;96917.28;5093898;28;20026;-26
2022/07/02 04:53:47;;;;;;;3.80;1.40;;;;;;;28.36;33.31;96915.25;5090454;28;20019;-26
2022/07/02 04:56:12;;;;;;;1.73;1.20;;;;;;;28.33;33.17;96918.34;5080229;28;20071;-26
2022/07/02 04:58:38;;;;;;;4.32;1.63;;;;;;;28.32;33.72;96914.81;5091884;28;20023;-26
2022/07/02 05:01:03;;;;;;;3.10;1.23;;;;;;;28.36;33.44;96917.28;5076675;28;20028;-27
2022/07/02 05:03:29;;;;;;;1.45;1.13;;;;;;;28.33;33.89;96913.53;5070867;28;20027;-26
2022/07/02 05:05:55;;;;;;;2.28;1.20;;;;;;;28.34;33.57;96919.88;5069374;28;20132;-26
2022/07/02 05:08:26;;;;;;;3.45;1.50;;;;;;;28.34;33.67;96919.88;5071251;28;20359;-26
2022/07/02 05:10:54;;;;;;;4.03;1.55;;;;;;;28.32;33.86;96922.44;5071622;28;20075;-26
2022/07/02 05:13:21;;;;;;;2.38;1.30;;;;;;;28.32;33.82;96925.22;5087103;28;20095;-25
2022/07/02 05:15:47;;;;;;;3.85;1.90;;;;;;;28.32;33.75;96919.63;5091700;28;20710;-26
2022/07/02 05:18:13;;;;;;;5.63;1.90;;;;;;;28.35;33.46;96919.34;5091196;28;20020;-26
2022/07/02 05:20:38;;;;;;;5.82;1.75;;;;;;;28.38;33.60;96920.31;5091439;28;20063;-26
2022/07/02 05:23:04;;;;;;;2.13;1.45;;;;;;;28.34;33.90;96926.19;5091493;28;20082;-26
2022/07/02 05:25:29;;;;;;;1.83;1.25;;;;;;;28.36;33.63;96922.88;5091358;28;20028;-25
2022/07/02 05:27:55;;;;;;;2.97;1.48;;;;;;;28.36;33.92;96929.22;5091242;28;20488;-26
2022/07/02 05:30:20;;;;;;;2.75;1.50;;;;;;;28.37;33.88;96927.16;5090931;28;20084;-26
2022/07/02 05:32:45;;;;;;;2.78;1.58;;;;;;;28.33;33.94;96933.06;5091203;28;20054;-26
2022/07/02 05:35:11;;;;;;;3.97;1.40;;;;;;;28.36;33.55;96928.44;5091280;28;20024;-26
2022/07/02 05:37:36;;;;;;;2.83;1.35;;;;;;;28.32;33.91;96930.78;5091376;28;20028;-26
2022/07/02 05:40:03;;;;;;;2.13;1.27;;;;;;;28.28;33.92;96942.28;5091462;28;20035;-26
2022/07/02 05:42:28;;;;;;;2.75;1.35;;;;;;;28.32;33.68;96942.72;5091077;28;20062;-26
2022/07/02 05:44:53;;;;;;;2.20;1.50;;;;;;;28.30;33.99;96939.72;5091252;28;20438;-26
2022/07/02 05:47:19;;;;;;;3.00;1.55;;;;;;;28.30;34.00;96942.50;5091219;28;20393;-26
2022/07/02 05:49:44;;;;;;;4.75;1.70;;;;;;;28.36;33.70;96945.19;5076277;28;20386;-26
2022/07/02 05:52:10;;;;;;;2.65;1.42;;;;;;;28.36;33.56;96950.78;5070942;28;20023;-26
2022/07/02 05:54:35;;;;;;;2.28;1.50;;;;;;;28.34;34.01;96947.75;5070691;28;20502;-27
2022/07/02 05:57:01;;;;;;;2.50;1.55;;;;;;;28.33;33.67;96946.25;5070828;28;20524;-26
2022/07/02 05:59:26;;;;;;;4.50;1.58;;;;;;;28.29;34.06;96949.38;5070935;28;20377;-26
2022/07/02 06:01:52;;;;;;;2.72;1.50;;;;;;;28.32;34.03;96958.69;5071003;28;20081;-26
2022/07/02 06:04:17;;;;;;;3.67;1.35;;;;;;;28.30;34.21;96958.50;5070815;28;20367;-26
2022/07/02 06:09:27;;;;;;;2.25;1.20;;;;;;;28.31;33.95;96957.22;5070773;28;20083;-26
2022/07/02 06:11:52;;;;;;;3.47;1.30;;;;;;;28.32;34.35;96964.28;5070865;28;20470;-26
2022/07/02 06:14:18;;;;;;;3.03;1.33;;;;;;;28.28;33.92;96961.06;5073196;28;20431;-26
2022/07/02 06:16:43;;;;;;;3.58;1.80;;;;;;;28.33;34.18;96968.56;5074461;28;20033;-26
2022/07/02 06:19:09;;;;;;;4.38;1.52;;;;;;;28.34;33.92;96962.47;5074132;28;20462;-26
2022/07/02 06:21:35;;;;;;;2.35;1.52;;;;;;;28.33;33.79;96968.56;5074333;28;20086;-26
2022/07/02 06:24:00;;;;;;;2.08;1.38;;;;;;;28.32;34.20;96965.03;5074238;28;20378;-27
2022/07/02 06:26:25;;;;;;;1.70;1.40;;;;;;;28.31;34.30;96969.13;5074210;28;20029;-27
2022/07/02 06:28:51;;;;;;;2.05;1.48;;;;;;;28.31;33.77;96966.34;5074311;28;20093;-26
2022/07/02 06:31:16;;;;;;;1.73;1.27;;;;;;;28.30;34.04;96964.06;5074167;28;20500;-26
2022/07/02 06:33:42;;;;;;;1.88;1.25;;;;;;;28.36;34.12;96959.13;5074151;28;20025;-26
2022/07/02 06:36:11;;;;;;;3.05;1.48;;;;;;;28.30;34.05;96964.81;5074214;28;20029;-26
2022/07/02 06:38:39;;;;;;;2.80;1.60;;;;;;;28.07;34.85;96975.53;5074115;28;20539;-26
2022/07/02 06:43:48;;;;;;;3.53;1.65;;;;;;;28.30;34.01;96975.22;5073914;28;20028;-26
2022/07/02 06:46:14;;;;;;;2.05;1.33;;;;;;;28.32;34.11;96975.44;5073881;28;20395;-26
2022/07/02 06:48:39;;;;;;;2.65;1.55;;;;;;;28.27;34.17;96970.72;5079346;28;20035;-26
2022/07/02 06:51:05;;;;;;;2.65;1.67;;;;;;;28.32;34.00;96978.22;5094164;28;20381;-26
2022/07/02 06:53:30;;;;;;;2.25;1.48;;;;;;;28.32;34.01;96972.63;5093999;28;20028;-26
2022/07/02 06:55:56;;;;;;;3.72;1.80;;;;;;;28.29;34.45;96979.31;5094089;28;20031;-26
2022/07/02 06:58:21;;;;;;;4.03;1.50;;;;;;;28.33;34.12;96979.72;5094077;28;20024;-26
2022/07/02 07:00:47;;;;;;;4.65;1.45;;;;;;;28.33;34.01;96976.94;5094040;28;20024;-27
2022/07/02 07:03:12;;;;;;;2.72;1.25;;;;;;;28.33;34.15;96976.94;5093693;28;20047;-26
2022/07/02 07:05:39;;;;;;;1.60;1.42;;;;;;;28.35;33.97;96977.16;5091540;28;20055;-26
2022/07/02 07:08:04;;;;;;;2.13;1.42;;;;;;;28.28;34.05;96989.69;5093834;28;20032;-26
2022/07/02 07:10:31;;;;;;;1.98;1.50;;;;;;;28.20;34.39;96992.34;5093717;28;20036;-27
2022/07/02 07:12:57;;;;;;;3.38;1.60;;;;;;;28.30;34.07;96986.38;5093674;28;20016;-26
2022/07/02 07:15:22;;;;;;;3.75;1.67;;;;;;;28.33;33.86;96982.50;5093457;28;20114;-26
2022/07/02 07:17:48;;;;;;;2.05;1.60;;;;;;;28.31;34.00;96987.91;5093480;28;20055;-26
2022/07/02 07:20:16;;;;;;;5.88;1.60;;;;;;;28.15;34.20;96992.41;5093807;28;20106;-26
2022/07/02 07:22:43;;;;;;;2.85;1.52;;;;;;;28.18;34.33;96988.59;5093563;28;20028;-26
2022/07/02 07:25:09;;;;;;;5.68;1.65;;;;;;;28.23;34.31;96991.28;5091854;28;20027;-26
2022/07/02 07:27:34;;;;;;;1.92;1.40;;;;;;;28.29;34.08;96996.78;5093310;28;20032;-26
2022/07/02 07:29:59;;;;;;;3.90;1.40;;;;;;;28.29;34.01;96991.22;5093105;28;20028;-26
2022/07/02 07:32:25;;;;;;;1.92;1.40;;;;;;;28.35;33.76;97005.81;5093222;28;20020;-27
2022/07/02 07:34:50;;;;;;;2.28;1.50;;;;;;;28.34;33.61;97004.28;5093030;28;20407;-26
2022/07/02 07:37:16;;;;;;;2.53;1.48;;;;;;;28.30;33.97;97006.66;5093058;28;20032;-26
2022/07/02 07:39:41;;;;;;;3.50;1.58;;;;;;;28.28;33.74;97006.44;5092899;28;20050;-26
2022/07/02 07:42:07;;;;;;;2.80;1.60;;;;;;;28.41;33.46;97005.72;5092852;28;20077;-25
2022/07/02 07:44:32;;;;;;;1.67;1.30;;;;;;;28.34;33.72;97000.75;5092962;28;20077;-26
2022/07/02 07:46:58;;;;;;;2.45;1.30;;;;;;;28.27;33.72;97007.72;5093099;28;20377;-27
2022/07/02 07:49:23;;;;;;;2.40;1.60;;;;;;;28.34;33.71;97000.75;5081049;28;20108;-26
2022/07/02 07:51:49;;;;;;;2.92;1.73;;;;;;;28.27;33.72;96999.34;5072836;28;20054;-26
2022/07/02 07:54:14;;;;;;;3.88;1.40;;;;;;;28.31;33.50;97007.41;5072308;28;20032;-26
2022/07/02 07:56:41;;;;;;;3.20;1.50;;;;;;;28.27;33.43;96999.34;5072596;28;20032;-26
2022/07/02 07:59:08;;;;;;;2.40;1.63;;;;;;;28.28;33.84;97005.69;5072117;28;20016;-26
2022/07/02 08:01:34;;;;;;;2.97;1.67;;;;;;;28.35;33.47;96994.66;5072457;28;20096;-26
2022/07/02 08:03:59;;;;;;;2.83;1.63;;;;;;;28.34;33.67;96997.97;5072041;28;20032;-26
2022/07/02 08:06:25;;;;;;;2.72;1.60;;;;;;;28.18;33.58;96991.41;5070161;28;20048;-26
2022/07/02 08:08:50;;;;;;;5.22;1.40;;;;;;;28.26;33.59;96997.09;5070967;28;20043;-26
2022/07/02 08:11:15;;;;;;;4.28;1.50;;;;;;;28.33;32.38;96994.44;5072356;28;20040;-26
2022/07/02 08:13:41;;;;;;;4.53;1.67;;;;;;;28.44;32.83;96996.28;5070889;28;20020;-26
2022/07/02 08:16:07;;;;;;;3.45;1.40;;;;;;;28.40;33.11;96996.59;5072366;28;20107;-26
2022/07/02 08:18:32;;;;;;;4.95;1.50;;;;;;;28.39;32.68;96995.09;5071973;28;20520;-26
2022/07/02 08:20:59;;;;;;;5.20;1.52;;;;;;;28.35;32.80;96994.66;5072173;28;20039;-27
2022/07/02 08:23:25;;;;;;;3.97;1.50;;;;;;;28.32;32.52;97001.28;5072003;28;20028;-26
2022/07/02 08:25:50;;;;;;;3.97;1.35;;;;;;;28.34;32.50;96992.38;5071878;28;20386;-26
2022/07/02 08:28:17;;;;;;;2.30;1.40;;;;;;;28.38;32.34;96992.84;5072044;28;20056;-26
2022/07/02 08:30:43;;;;;;;2.17;1.38;;;;;;;28.38;32.59;96987.25;5071862;28;20067;-26
2022/07/02 08:33:09;;;;;;;4.40;1.60;;;;;;;28.35;32.31;96991.09;5073752;28;20468;-27
2022/07/02 08:35:34;;;;;;;2.35;1.10;;;;;;;28.40;32.39;96988.22;5074124;28;20393;-27
2022/07/02 08:38:00;;;;;;;2.72;1.20;;;;;;;28.39;32.51;96983.94;5073634;28;20020;-26
2022/07/02 08:40:28;;;;;;;5.15;1.30;;;;;;;28.35;32.34;96988.31;5073781;28;20029;-27
2022/07/02 08:42:57;;;;;;;3.10;1.67;;;;;;;28.40;32.26;96990.28;5073724;28;20454;-26
2022/07/02 08:45:24;;;;;;;3.45;1.30;;;;;;;28.42;32.30;96987.72;5072557;28;20027;-26
2022/07/02 08:47:52;;;;;;;4.47;1.70;;;;;;;28.43;32.15;96983.63;5072928;28;20107;-27
2022/07/02 08:50:19;;;;;;;4.03;1.60;;;;;;;28.44;31.93;96993.47;5071915;28;20020;-26
2022/07/02 08:52:45;;;;;;;5.57;1.40;;;;;;;28.38;31.67;96987.25;5073337;28;20017;-27
2022/07/02 08:55:10;;;;;;;3.28;1.80;;;;;;;28.40;32.14;96982.66;5072120;28;20035;-26
2022/07/02 08:57:38;;;;;;;3.22;1.80;;;;;;;28.45;31.51;96983.81;5070089;28;20115;-26
2022/07/02 09:00:05;;;;;;;4.97;1.63;;;;;;;28.46;31.85;96979.75;5071530;28;20039;-26
2022/07/02 09:02:31;;;;;;;3.22;1.75;;;;;;;28.39;31.78;96977.59;5071544;28;20039;-26
2022/07/02 09:05:01;;;;;;;2.67;1.67;;;;;;;28.43;31.66;96978.06;5071391;28;20036;-26
2022/07/02 09:07:27;;;;;;;3.42;1.55;;;;;;;28.41;31.84;96981.38;5071068;28;20044;-26
2022/07/02 09:09:54;;;;;;;5.35;1.75;;;;;;;28.39;31.49;96972.78;5071451;28;20492;-26
2022/07/02 09:12:23;;;;;;;4.70;1.77;;;;;;;28.39;31.49;96989.53;5071296;28;20078;-27
2022/07/02 09:14:48;;;;;;;2.97;1.60;;;;;;;28.45;31.33;96981.78;5071484;28;20032;-26
2022/07/02 09:17:14;;;;;;;2.75;1.25;;;;;;;28.46;31.41;96991.66;5071217;28;20097;-28
2022/07/02 09:19:40;;;;;;;3.53;1.60;;;;;;;28.50;31.24;96994.16;5070997;28;20025;-26
2022/07/02 09:22:08;;;;;;;1.92;1.27;;;;;;;28.48;31.06;96991.91;5070171;28;20040;-26
2022/07/02 09:24:39;;;;;;;4.75;1.42;;;;;;;28.47;30.97;96978.47;5070526;28;20031;-26
2022/07/02 09:27:07;;;;;;;5.03;1.60;;;;;;;28.48;30.91;96991.13;5070575;28;20032;-26
2022/07/02 09:29:52;;;;;;;3.95;1.58;;;;;;;28.51;31.10;96987.28;5069298;28;20056;-26
2022/07/02 09:32:19;;;;;;;3.28;1.70;;;;;;;28.50;30.96;96985.78;5071133;28;20025;-27
2022/07/02 09:34:47;;;;;;;4.60;1.48;;;;;;;28.44;30.77;96999.06;5070859;28;20032;-27
2022/07/02 09:37:17;;;;;;;3.08;1.50;;;;;;;28.43;30.81;96989.22;5071043;28;20021;-26
2022/07/02 09:39:44;;;;;;;4.03;1.50;;;;;;;28.46;30.68;96993.69;5070827;28;20029;-26
2022/07/02 09:42:25;;;;;;;5.18;1.70;;;;;;;28.47;30.98;96984.06;5070503;28;20073;-26
2022/07/02 09:44:51;;;;;;;3.03;1.60;;;;;;;28.49;30.07;96984.28;5071240;28;20034;-28
2022/07/02 09:47:16;;;;;;;6.20;1.95;;;;;;;28.47;30.62;96984.06;5071146;28;20497;-26
2022/07/02 09:49:49;;;;;;;4.45;1.60;;;;;;;28.51;30.13;96984.50;5074235;28;20429;-26
2022/07/02 09:52:16;;;;;;;5.10;1.77;;;;;;;28.51;29.92;96984.50;5075081;28;20020;-26
2022/07/02 09:54:42;;;;;;;1.73;1.02;;;;;;;28.55;30.05;96990.53;5074801;28;20032;-26
2022/07/02 09:57:10;;;;;;;4.47;1.45;;;;;;;28.47;30.00;96984.06;5073462;28;20493;-26
2022/07/02 09:59:36;;;;;;;2.38;1.50;;;;;;;28.48;29.48;96991.91;5075016;28;20032;-26
2022/07/02 10:02:02;;;;;;;5.53;1.70;;;;;;;28.53;29.47;96987.50;5074903;28;20555;-26
2022/07/02 10:04:33;;;;;;;4.05;1.52;;;;;;;28.58;29.39;96983.84;5091802;28;20028;-26
2022/07/02 10:07:00;;;;;;;4.93;1.42;;;;;;;28.54;29.68;96992.56;5094712;28;20048;-26
2022/07/02 10:09:26;;;;;;;7.40;1.70;;;;;;;28.49;29.39;96981.47;5094961;28;20028;-27
2022/07/02 10:11:52;;;;;;;2.42;1.73;;;;;;;28.56;29.60;96986.44;5087488;28;20446;-26
2022/07/02 10:14:20;;;;;;;5.25;2.00;;;;;;;28.55;29.44;96996.09;5074483;28;20486;-26
2022/07/02 10:16:47;;;;;;;3.90;1.30;;;;;;;28.55;28.89;96988.50;5076766;28;20036;-26
2022/07/02 10:19:14;;;;;;;3.92;1.80;;;;;;;28.57;29.22;96987.94;5075341;28;20020;-26
2022/07/02 10:21:40;;;;;;;7.72;1.50;;;;;;;28.56;29.17;96987.19;5074487;28;20059;-26
2022/07/02 10:24:10;;;;;;;4.50;1.40;;;;;;;28.62;29.00;96986.34;5075182;28;20509;-26
2022/07/02 10:26:37;;;;;;;7.38;2.00;;;;;;;28.61;29.38;96985.59;5085541;28;20060;-26
2022/07/02 10:29:03;;;;;;;5.35;1.60;;;;;;;28.58;29.07;96983.84;5072323;28;20094;-26
2022/07/02 10:31:44;;;;;;;3.33;1.90;;;;;;;28.61;28.99;96980.00;5086353;28;20028;-26
2022/07/02 10:34:45;;;;;;;1.83;1.15;;;;;;;28.64;29.18;96992.16;5094516;28;20056;-25
2022/07/02 10:37:12;;;;;;;5.13;1.65;;;;;;;28.61;29.41;96996.75;5086947;28;20039;-26
2022/07/02 10:39:41;;;;;;;5.45;1.40;;;;;;;28.60;29.15;96993.19;5094352;28;20477;-26
2022/07/02 10:42:07;;;;;;;5.07;1.60;;;;;;;28.60;28.92;96992.44;5094164;28;20024;-26
2022/07/02 10:44:40;;;;;;;11.77;1.65;;;;;;;28.62;29.13;96991.91;5074288;28;20187;-26
2022/07/02 10:47:25;;;;;;;4.63;1.33;;;;;;;28.53;29.25;96987.50;5073940;28;20059;-26
2022/07/02 10:50:01;;;;;;;5.55;1.98;;;;;;;28.50;29.34;96988.56;5074006;28;20086;-26
2022/07/02 10:52:51;;;;;;;5.95;1.50;;;;;;;28.52;29.44;96983.22;5073946;28;20040;-26
2022/07/02 10:55:29;;;;;;;4.95;1.73;;;;;;;28.61;29.23;96988.38;5073664;28;20017;-26
2022/07/02 10:57:59;;;;;;;5.10;1.80;;;;;;;28.67;29.34;96982.72;5073882;28;20031;-26
2022/07/02 11:00:27;;;;;;;4.53;2.40;;;;;;;28.64;29.19;96978.94;5072259;28;20036;-26
2022/07/02 11:02:53;;;;;;;3.95;1.75;;;;;;;28.69;28.91;96975.28;5073773;28;20021;-26
2022/07/02 11:05:18;;;;;;;6.10;1.48;;;;;;;28.73;29.27;96980.56;5073463;28;20493;-26
2022/07/02 11:07:44;;;;;;;5.13;1.60;;;;;;;28.72;29.29;96976.25;5073140;28;20021;-26
2022/07/02 11:10:10;;;;;;;5.38;1.65;;;;;;;28.72;29.12;96979.78;5073406;28;20040;-26
2022/07/02 11:12:44;;;;;;;8.75;2.28;;;;;;;28.63;29.48;96974.66;5073477;28;20053;-26
2022/07/02 11:15:35;;;;;;;5.30;2.00;;;;;;;28.63;29.38;96977.44;5073272;28;20035;-26
2022/07/02 11:18:10;;;;;;;7.50;1.70;;;;;;;28.65;29.59;96972.06;5073161;28;20466;-26
2022/07/02 11:20:36;;;;;;;3.83;1.52;;;;;;;28.67;29.38;96968.75;5087848;28;20028;-26
2022/07/02 11:23:03;;;;;;;6.00;1.70;;;;;;;28.59;29.39;96958.22;5093651;28;20495;-26
2022/07/02 11:25:30;;;;;;;5.78;1.73;;;;;;;28.54;29.89;96966.69;5093156;28;20031;-26
2022/07/02 11:28:00;;;;;;;4.88;2.03;;;;;;;28.72;29.77;96957.47;5093472;28;20271;-25
2022/07/02 11:30:31;;;;;;;7.78;2.15;;;;;;;28.74;30.17;96966.06;5090471;28;20051;-26
2022/07/02 11:32:56;;;;;;;5.15;1.80;;;;;;;28.68;29.85;96970.25;5093368;28;20028;-26
2022/07/02 11:35:22;;;;;;;4.05;1.55;;;;;;;28.63;30.07;96960.69;5093216;28;20030;-26
2022/07/02 11:37:48;;;;;;;5.75;1.77;;;;;;;28.69;30.46;96958.53;5093382;28;20075;-26
2022/07/02 11:40:23;;;;;;;5.95;1.92;;;;;;;28.70;29.97;96954.47;5092771;28;20466;-26